Aviation Digital Data Service (ADDS)

Output produced by METARs form (0244 UTC 24 July 2017)
found at http://www.aviationweather.gov/adds/metars/
 
KRAP 232326Z 2400/2424 13010KT P6SM SCT200 
     FM240500 14010KT P6SM VCTS BKN060CB 
     FM240800 15010KT P6SM SCT150
       
KRBG 232334Z 2400/2424 01015G24KT P6SM SCT100 
     FM240600 36008KT P6SM SCT080 
     FM241900 01010G18KT P6SM SCT080
       
KRBL 232320Z 2400/2424 16011KT P6SM FEW250 
     FM240400 VRB05KT P6SM FEW250
       
KRDD 232320Z 2400/2424 17011KT P6SM SCT250 
     FM240400 VRB04KT P6SM FEW250
       
KRDG 240233Z 2403/2424 12008KT P6SM OVC009 
     FM240400 VRB03KT P6SM VCTS OVC008CB 
     TEMPO 2404/2406 4SM -SHRA OVC003 
     FM240900 VRB03KT 6SM -SHRA OVC008 
     FM241200 32004KT 4SM BR OVC010 
     FM241500 30005KT P6SM BKN025 
     FM241700 31005KT P6SM SCT050 
     FM242000 14004KT P6SM SCT250 
     FM242200 21004KT P6SM SCT070
       
KRDM 232331Z 2400/2424 01003KT P6SM FEW080 SCT250 
     FM240600 32006KT P6SM FEW090 SCT150 
     FM240900 VRB04KT P6SM BKN150 
     FM242100 35008G15KT P6SM SCT150
       
TAF KRDR 240205Z 2402/2508 09009KT 9999 FEW040 QNH2993INS 
     BECMG 2414/2415 18012G18KT 9999 SKC QNH2982INS 
     BECMG 2423/2424 16012KT 9999 SKC QNH2982INS TX28/2421Z TN15/2410Z
       
KRDU 232338Z 2400/2424 VRB05KT P6SM VCTS SCT035CB BKN070 
     TEMPO 2400/2401 VRB10G20KT 6SM -TSRA BR BKN035CB 
     FM240200 VRB05KT P6SM SCT040 BKN070
       
KRIC 232325Z 2400/2424 05009KT P6SM SCT050 BKN100 
     FM240600 23006KT P6SM BKN060 
     FM241600 25006KT P6SM SCT250
       
KRIL 232354Z 2400/2424 VRB04KT P6SM FEW100 
     FM240200 13010KT P6SM SCT250 
     FM240500 13004KT P6SM BKN200 
     FM241800 32007KT P6SM SCT100 BKN150 
     FM242200 22007KT P6SM VCSH BKN090 OVC120
       
TAF KRIV 232006Z 2320/2502 31009KT 9999 FEW100 SCT150 QNH2987INS 
     TEMPO 2321/2401 30012G18KT SCT100 TS OMTNS NE-SE 
     BECMG 2403/2404 VRB04KT 9999 SCT100 QNH2989INS 
     BECMG 2418/2419 32012KT 9999 VCSH SCT080 BKN130 QNH2985INS TX36/2322Z TN16/2412Z
       
KRIW 232326Z 2400/2424 30010G18KT P6SM SCT120 BKN250 
     FM240300 31008KT P6SM SKC 
     FM242100 32011G21KT P6SM SCT130 BKN200
       
KRKD 232320Z 2400/2424 00000KT P6SM SCT120 SCT200 
     FM241100 10006KT P6SM OVC090 
     FM241700 10007KT P6SM OVC050 
     FM242100 08007KT 5SM -RA BR OVC025 AMD LTD TO CLD VIS AND WIND
       
KRKS 232326Z 2400/2424 27012KT P6SM SCT120 
     FM240300 31006KT P6SM FEW140 
     FM240700 VRB05KT P6SM SKC 
     FM241900 23012KT P6SM SCT110
       
KRME 232332Z 2400/2424 12008KT P6SM OVC050 
     TEMPO 2403/2407 3SM -SHRA BKN025 
     FM240700 11008KT 4SM -SHRA BR OVC019 
     FM241600 11010KT P6SM -SHRA BKN022 
     FM242300 11010KT P6SM BKN035
       
KRNO 240111Z 2401/2424 29014G22KT P6SM SCT120 
     FM240500 26008KT P6SM VCSH BKN120 
     FM240800 VRB03KT P6SM SCT120 
     FM242100 19008KT P6SM SCT150
       
KROA 240118Z 2401/2424 25006KT P6SM SCT045 BKN120 
     FM240300 26005KT P6SM VCTS BKN045CB BKN120 
     FM241300 28009G17KT P6SM SCT050 SCT250
       
KROC 232340Z 2400/2424 07010KT P6SM -SHRA VCTS BKN035CB 
     FM240100 07009KT P6SM VCSH BKN025 
     FM240300 08007KT P6SM BKN025 
     FM241400 24006KT P6SM OVC035
       
KROG 232320Z 2400/2424 21006KT P6SM SCT120 BKN250 
     FM240300 VRB03KT P6SM BKN250 
     FM241500 05005KT P6SM SKC
       
KROW 232339Z 2400/2424 13009KT P6SM VCTS BKN060CB 
     TEMPO 2400/2403 VRB20G35KT 5SM -TSRA BKN050CB 
     FM240300 VRB06KT P6SM BKN070 
     FM241800 15010KT P6SM SCT070 
     FM242200 17011KT P6SM VCTS BKN070CB
       
KRSL 232320Z 2400/2424 07006KT P6SM SKC 
     FM241300 13006KT P6SM SKC 
     FM241600 17010KT P6SM SKC
       
KRST 240157Z 2402/2424 03010KT P6SM BKN030 
     FM241000 04004KT 5SM BR FEW030 
     FM241300 06004KT P6SM SCT030 
     FM241900 12007KT P6SM FEW030
       
KRSW 240053Z 2401/2424 10006KT P6SM FEW030 SCT100 BKN250 
     FM240200 VRB03KT P6SM FEW050 SCT100 BKN250 
     FM241500 22006KT P6SM FEW025 SCT100 BKN250 
     FM241800 25007KT P6SM VCTS SCT030CB SCT100 BKN250
       
KRUT 232336Z 2400/2424 00000KT P6SM BKN100 
     FM240300 13007KT P6SM OVC060 
     FM240600 14008KT P6SM VCSH OVC070 
     FM241000 13012KT 6SM -SHRA BR OVC060 
     FM241500 12012G18KT 4SM +SHRA BR OVC030 
     FM241900 11012G19KT 6SM -SHRA BR OVC020
       
KRVS 232320Z 2400/2424 03006KT P6SM SCT050 BKN150 
     FM240200 00000KT P6SM SCT250 
     FM241600 06005KT P6SM SKC
       
KRWI 232338Z 2400/2424 VRB20G40KT 1/2SM +TSRA FG BKN012CB 
     FM240100 VRB05KT P6SM VCTS BKN035CB 
     FM240700 00000KT 5SM BR SCT002 
     FM241000 00000KT 1 1/2SM BR BKN002 
     FM241300 22006KT P6SM BKN080
       
KRWL 232322Z 2400/2424 28007KT P6SM SCT130 
     FM241700 24013KT P6SM SKC
       
KRYY 232337Z 2400/2424 30009KT P6SM VCSH SCT040 
     TEMPO 2400/2401 4SM -TSRA BKN035CB 
     FM240200 28005KT P6SM SCT120 SCT250 
     FM241400 29006KT P6SM SCT040 SCT250 
     FM241600 28007KT P6SM VCSH SCT050 
     PROB30 2417/2423 4SM TSRA BKN035CB AMD NOT SKED 2404/2412